SANT/TUC METAR and TAF weather

Enter ICAO airport designator
Station Type Date Time Source
SANT METAR 2020/11/25 22:00 UTC NOAA

SANT 252200Z 14009KT 9000 SCT045 FEW050CB BKN200 34/17 Q1005


Station Type Date Time Source
SANT Decoded METAR 2020/11/25 22:00 UTC NOAA

Tucuman Aerodrome, Argentina (SANT) 26-51S 065-06W 450M
Nov 25, 2020 - 05:00 PM EST / 2020.11.25 2200 UTC
Wind: from the SE (140 degrees) at 10 MPH (9 KT):0
Visibility: 5 mile(s):0
Sky conditions: mostly cloudy
Weather: Cumulonimbus clouds observed
Temperature: 93 F (34 C)
Dew Point: 62 F (17 C)
Relative Humidity: 36%
Pressure (altimeter): 29.68 in. Hg (1005 hPa)
ob: SANT 252200Z 14009KT 9000 SCT045 FEW050CB BKN200 34/17 Q1005
cycle: 22

Station Type Date Time Source
SANT TAF 2020/11/25 18:06 UTC NOAA

TAF TAF SANT 251700Z 2518/2618 18015KT 9000 SCT030 TX31/2618Z TN22/2610Z PROB40
TEMPO 2521/2601 FEW050CB
BECMG 2611/2614 18015KT 5000 TSRA BKN020 FEW050CB

Example: see airport list